createdAt,value
2023-05-07T00:00:56.091Z,21.00
2023-05-07T00:03:27.547Z,21.10
2023-05-07T00:05:58.648Z,20.80
2023-05-07T00:08:29.592Z,21.20
2023-05-07T00:11:00.603Z,21.10
2023-05-07T00:13:36.296Z,21.20
2023-05-07T00:16:07.322Z,21.50
2023-05-07T00:18:38.266Z,21.20
2023-05-07T00:21:09.168Z,21.40
2023-05-07T00:23:40.110Z,21.30
2023-05-07T00:26:10.980Z,21.30
2023-05-07T00:28:42.407Z,21.40
2023-05-07T00:31:13.430Z,21.20
2023-05-07T00:33:44.415Z,21.00
2023-05-07T00:36:15.328Z,21.20
2023-05-07T00:38:46.238Z,21.20
2023-05-07T00:41:17.224Z,21.10
2023-05-07T00:43:48.526Z,21.20
2023-05-07T00:46:21.829Z,21.00
2023-05-07T00:48:53.371Z,20.70
2023-05-07T00:51:27.818Z,20.90
2023-05-07T00:53:58.846Z,21.20
2023-05-07T00:56:29.878Z,20.90
2023-05-07T00:59:03.864Z,21.20
2023-05-07T01:01:34.923Z,21.10
2023-05-07T01:04:06.234Z,20.90
2023-05-07T01:06:37.770Z,21.20
2023-05-07T01:09:10.206Z,20.80
2023-05-07T01:11:41.642Z,20.70
2023-05-07T01:14:12.872Z,20.50
2023-05-07T01:16:43.917Z,20.70
2023-05-07T01:19:19.164Z,20.90
2023-05-07T01:21:52.543Z,20.90
2023-05-07T01:24:23.611Z,20.60
2023-05-07T01:26:54.466Z,20.80
2023-05-07T01:29:25.384Z,20.80
2023-05-07T01:31:59.939Z,20.70
2023-05-07T01:34:33.867Z,20.80
2023-05-07T01:37:04.884Z,20.80
2023-05-07T01:39:40.219Z,20.90
2023-05-07T01:42:11.202Z,20.60
2023-05-07T01:44:42.110Z,20.30
2023-05-07T01:47:14.984Z,20.50
2023-05-07T01:49:46.066Z,20.60
2023-05-07T01:52:17.067Z,20.70
2023-05-07T01:54:47.933Z,20.60
2023-05-07T01:57:18.817Z,20.50
2023-05-07T01:59:49.699Z,20.60
2023-05-07T02:02:20.759Z,20.50
2023-05-07T02:04:51.724Z,20.60
2023-05-07T02:07:22.985Z,20.50
2023-05-07T02:09:53.991Z,20.30
2023-05-07T02:12:24.909Z,20.50
2023-05-07T02:14:55.909Z,20.40
2023-05-07T02:17:26.999Z,20.10
2023-05-07T02:19:57.911Z,19.80
2023-05-07T02:22:28.765Z,20.20
2023-05-07T02:24:59.643Z,20.10
2023-05-07T02:27:30.563Z,19.90
2023-05-07T02:30:01.522Z,19.90
2023-05-07T02:32:32.409Z,20.00
2023-05-07T02:35:03.554Z,19.90
2023-05-07T02:37:34.433Z,19.90
2023-05-07T02:40:06.507Z,19.80
2023-05-07T02:42:37.446Z,19.50
2023-05-07T02:45:09.322Z,19.70
2023-05-07T02:47:40.295Z,19.90
2023-05-07T02:50:12.018Z,19.90
2023-05-07T02:52:43.083Z,20.00
2023-05-07T02:55:14.147Z,20.00
2023-05-07T02:57:45.006Z,19.80
2023-05-07T03:00:19.288Z,20.10
2023-05-07T03:02:50.381Z,19.90
2023-05-07T03:05:21.585Z,19.80
2023-05-07T03:07:52.449Z,19.60
2023-05-07T03:10:23.297Z,19.80
2023-05-07T03:12:54.176Z,19.60
2023-05-07T03:15:25.160Z,19.80
2023-05-07T03:17:56.108Z,19.80
2023-05-07T03:20:27.067Z,19.70
2023-05-07T03:22:58.047Z,19.40
2023-05-07T03:25:31.026Z,19.30
2023-05-07T03:28:01.952Z,19.30
2023-05-07T03:30:32.844Z,19.10
2023-05-07T03:33:03.821Z,19.30
2023-05-07T03:35:34.871Z,19.40
2023-05-07T03:38:05.839Z,19.60
2023-05-07T03:40:36.740Z,19.50
2023-05-07T03:43:07.746Z,19.10
2023-05-07T03:45:38.626Z,19.10
2023-05-07T03:48:09.603Z,19.00
2023-05-07T03:50:40.695Z,18.60
2023-05-07T03:53:11.617Z,18.90
2023-05-07T03:55:42.504Z,19.10
2023-05-07T03:58:13.396Z,19.20
2023-05-07T04:00:44.272Z,19.30
2023-05-07T04:03:15.704Z,19.00
2023-05-07T04:05:46.702Z,19.20
2023-05-07T04:08:17.871Z,19.00
2023-05-07T04:10:48.768Z,19.10
2023-05-07T04:13:19.715Z,19.00
2023-05-07T04:15:50.675Z,18.90
2023-05-07T04:18:22.381Z,19.20
2023-05-07T04:20:53.264Z,19.00
2023-05-07T04:23:24.169Z,19.30
2023-05-07T04:25:55.495Z,19.20
2023-05-07T04:28:26.829Z,19.00
2023-05-07T04:30:57.688Z,19.00
2023-05-07T04:33:28.637Z,19.20
2023-05-07T04:36:03.932Z,19.30
2023-05-07T04:38:34.857Z,19.60
2023-05-07T04:41:07.597Z,19.70
2023-05-07T04:43:38.488Z,19.60
2023-05-07T04:46:09.531Z,19.60
2023-05-07T04:48:40.409Z,19.80
2023-05-07T04:51:11.273Z,19.50
2023-05-07T04:53:42.476Z,19.40
2023-05-07T04:56:13.634Z,19.40
2023-05-07T04:58:44.592Z,19.50
2023-05-07T05:01:15.823Z,19.50
2023-05-07T05:03:46.762Z,19.60
2023-05-07T05:06:17.700Z,19.70
2023-05-07T05:08:48.639Z,19.60
2023-05-07T05:11:19.580Z,19.50
2023-05-07T05:13:50.606Z,19.60
2023-05-07T05:16:21.560Z,19.80
2023-05-07T05:18:53.250Z,20.00
2023-05-07T05:21:24.157Z,20.10
2023-05-07T05:23:55.149Z,20.10
2023-05-07T05:26:26.860Z,20.20
2023-05-07T05:28:57.804Z,20.20
2023-05-07T05:31:28.767Z,20.00
2023-05-07T05:33:59.689Z,20.40
2023-05-07T05:36:31.693Z,20.90
2023-05-07T05:39:02.621Z,21.00
2023-05-07T05:41:33.499Z,20.60
2023-05-07T05:44:04.395Z,20.60
2023-05-07T05:46:37.115Z,20.60
2023-05-07T05:49:08.246Z,20.60
2023-05-07T05:51:39.195Z,20.80
2023-05-07T05:54:10.116Z,20.90
2023-05-07T05:56:41.015Z,20.90
2023-05-07T05:59:12.155Z,21.00
2023-05-07T06:01:43.182Z,21.00
2023-05-07T06:04:14.117Z,21.30
2023-05-07T06:06:45.066Z,21.90
2023-05-07T06:09:15.992Z,21.90
2023-05-07T06:11:46.876Z,21.40
2023-05-07T06:14:17.725Z,21.50
2023-05-07T06:16:48.636Z,21.90
2023-05-07T06:19:24.049Z,21.70
2023-05-07T06:21:59.454Z,21.70
2023-05-07T06:24:30.645Z,21.80
2023-05-07T06:27:01.513Z,21.80
2023-05-07T06:29:33.856Z,21.70
2023-05-07T06:32:12.756Z,21.50
2023-05-07T06:34:43.834Z,21.60
2023-05-07T06:37:14.809Z,21.70
2023-05-07T06:39:45.862Z,21.80
2023-05-07T06:42:16.812Z,21.90
2023-05-07T06:44:47.794Z,22.10
2023-05-07T06:47:18.708Z,22.10
2023-05-07T06:49:49.638Z,22.10
2023-05-07T06:52:20.559Z,22.10
2023-05-07T06:54:51.510Z,22.50
2023-05-07T06:57:22.374Z,22.60
2023-05-07T06:59:53.362Z,22.80
2023-05-07T07:02:24.309Z,22.70
2023-05-07T07:04:55.332Z,22.70
2023-05-07T07:07:26.276Z,22.80
2023-05-07T07:09:57.191Z,23.30
2023-05-07T07:12:29.911Z,23.10
2023-05-07T07:15:00.791Z,23.50
2023-05-07T07:17:31.888Z,23.50
2023-05-07T07:20:03.801Z,23.40
2023-05-07T07:22:34.888Z,23.30
2023-05-07T07:25:06.348Z,23.80
2023-05-07T07:27:38.288Z,24.10
2023-05-07T07:30:09.953Z,23.90
2023-05-07T07:32:41.194Z,24.00
2023-05-07T07:35:12.116Z,24.40
2023-05-07T07:37:43.210Z,24.20
2023-05-07T07:40:14.882Z,24.30
2023-05-07T07:42:46.045Z,24.40
2023-05-07T07:45:18.331Z,24.80
2023-05-07T07:47:49.269Z,25.10
2023-05-07T07:50:32.190Z,25.10
2023-05-07T07:53:11.048Z,25.20
2023-05-07T07:55:42.076Z,25.30
2023-05-07T07:58:13.008Z,25.30
2023-05-07T08:00:44.082Z,25.60
2023-05-07T08:03:17.811Z,26.00
2023-05-07T08:05:50.701Z,25.90
2023-05-07T08:08:23.464Z,26.00
2023-05-07T08:10:54.402Z,26.20
2023-05-07T08:13:25.455Z,26.00
2023-05-07T08:15:56.377Z,26.00
2023-05-07T08:18:29.616Z,26.30
2023-05-07T08:21:00.688Z,26.40
2023-05-07T08:23:31.741Z,26.60
2023-05-07T08:26:02.668Z,26.40
2023-05-07T08:28:33.590Z,26.30
2023-05-07T08:31:04.922Z,26.40
2023-05-07T08:33:36.096Z,26.50
2023-05-07T08:36:07.718Z,26.60
2023-05-07T08:38:41.644Z,26.60
2023-05-07T08:41:12.640Z,27.00
2023-05-07T08:43:49.983Z,26.90
2023-05-07T08:46:23.064Z,26.80
2023-05-07T08:48:54.154Z,26.70
2023-05-07T08:51:25.270Z,26.80
2023-05-07T08:53:56.197Z,26.70
2023-05-07T08:56:27.081Z,26.80
2023-05-07T08:58:59.857Z,27.00
2023-05-07T09:01:30.867Z,27.30
2023-05-07T09:04:01.956Z,26.90
2023-05-07T09:06:33.007Z,27.30
2023-05-07T09:09:06.405Z,27.30
2023-05-07T09:11:37.365Z,27.60
2023-05-07T09:14:09.655Z,27.70
2023-05-07T09:16:40.862Z,27.40
2023-05-07T09:19:11.960Z,27.50
2023-05-07T09:21:42.915Z,27.90
2023-05-07T09:24:17.231Z,27.90
2023-05-07T09:26:48.223Z,27.70
2023-05-07T09:29:19.833Z,28.20
2023-05-07T09:31:50.990Z,28.40
2023-05-07T09:34:22.117Z,28.20
2023-05-07T09:36:53.049Z,28.70
2023-05-07T09:39:25.005Z,28.70
2023-05-07T09:41:56.106Z,28.50
2023-05-07T09:44:27.848Z,28.60
2023-05-07T09:47:01.538Z,28.80
2023-05-07T09:49:37.482Z,28.90
2023-05-07T09:52:09.948Z,29.10
2023-05-07T09:54:44.133Z,28.60
2023-05-07T09:57:15.749Z,28.80
2023-05-07T09:59:47.345Z,29.10
2023-05-07T10:02:21.155Z,28.50
2023-05-07T10:04:52.925Z,28.70
2023-05-07T10:07:26.402Z,29.30
2023-05-07T10:09:59.108Z,28.90
2023-05-07T10:12:31.181Z,28.90
2023-05-07T10:15:02.496Z,29.00
2023-05-07T10:17:37.466Z,29.20
2023-05-07T10:20:09.657Z,28.60
2023-05-07T10:22:44.522Z,28.50
2023-05-07T10:25:31.711Z,29.40
2023-05-07T10:28:07.877Z,29.70
2023-05-07T10:31:03.747Z,30.10
2023-05-07T10:33:35.969Z,29.70
2023-05-07T10:36:08.932Z,29.60
2023-05-07T10:38:41.778Z,30.10
2023-05-07T10:41:13.181Z,30.40
2023-05-07T10:43:46.490Z,30.60
2023-05-07T10:46:19.187Z,31.00
2023-05-07T10:49:06.300Z,30.50
2023-05-07T10:51:37.232Z,30.50
2023-05-07T10:54:28.379Z,30.00
2023-05-07T10:57:39.021Z,30.40
2023-05-07T11:00:38.119Z,31.00
2023-05-07T11:03:10.326Z,31.00
2023-05-07T11:05:42.291Z,30.90
2023-05-07T11:08:13.278Z,30.90
2023-05-07T11:10:59.486Z,31.10
2023-05-07T11:13:48.455Z,31.10
2023-05-07T11:16:28.231Z,31.20
2023-05-07T11:18:59.212Z,31.80
2023-05-07T11:21:43.347Z,32.20
2023-05-07T11:24:16.578Z,32.00
2023-05-07T11:26:50.377Z,31.90
2023-05-07T11:29:24.241Z,31.60
2023-05-07T11:31:56.619Z,31.70
2023-05-07T11:34:28.327Z,31.50
2023-05-07T11:37:00.058Z,31.60
2023-05-07T11:39:35.312Z,31.40
2023-05-07T11:42:06.383Z,31.80
2023-05-07T11:44:49.172Z,31.70
2023-05-07T11:47:21.984Z,32.00
2023-05-07T11:49:55.140Z,31.70
2023-05-07T11:52:26.032Z,31.40
2023-05-07T11:54:59.492Z,31.40
2023-05-07T11:57:30.497Z,31.30
2023-05-07T12:00:06.415Z,30.90
2023-05-07T12:02:37.425Z,30.90
2023-05-07T12:05:08.574Z,30.60
2023-05-07T12:07:39.492Z,30.70
2023-05-07T12:10:13.663Z,30.60
2023-05-07T12:12:48.282Z,30.40
2023-05-07T12:15:23.778Z,30.20
2023-05-07T12:17:55.611Z,30.40
2023-05-07T12:20:27.081Z,30.00
2023-05-07T12:22:58.309Z,29.90
2023-05-07T12:25:33.768Z,29.60
2023-05-07T12:28:08.328Z,29.30
2023-05-07T12:30:40.945Z,29.10
2023-05-07T12:33:12.417Z,29.00
2023-05-07T12:35:44.368Z,29.10
2023-05-07T12:38:18.436Z,29.20
2023-05-07T12:40:55.552Z,29.10
2023-05-07T12:43:29.781Z,28.10
2023-05-07T12:46:09.467Z,28.00
2023-05-07T12:48:47.267Z,28.00
2023-05-07T12:51:18.253Z,27.30
2023-05-07T12:53:49.090Z,27.10
2023-05-07T12:56:19.980Z,26.90
2023-05-07T12:58:51.059Z,25.70
2023-05-07T13:01:22.941Z,24.70
2023-05-07T13:03:53.895Z,25.10
2023-05-07T13:06:24.826Z,24.20
2023-05-07T13:08:56.413Z,24.50
2023-05-07T13:11:27.330Z,24.50
2023-05-07T13:13:58.234Z,24.50
2023-05-07T13:16:29.113Z,23.50
2023-05-07T13:19:00.034Z,24.00
2023-05-07T13:21:32.942Z,23.10
2023-05-07T13:24:04.088Z,22.30
2023-05-07T13:26:34.944Z,22.00
2023-05-07T13:29:06.192Z,22.60
2023-05-07T13:31:37.573Z,22.60
2023-05-07T13:34:08.460Z,22.70
2023-05-07T13:36:40.967Z,23.00
2023-05-07T13:39:11.993Z,22.90
2023-05-07T13:41:42.873Z,22.40
2023-05-07T13:44:13.872Z,22.30
2023-05-07T13:46:44.750Z,22.60
2023-05-07T13:49:15.815Z,22.90
2023-05-07T13:51:46.690Z,23.10
2023-05-07T13:54:17.798Z,22.90
2023-05-07T13:56:48.687Z,22.50
2023-05-07T13:59:19.615Z,22.70
2023-05-07T14:01:50.673Z,22.70
2023-05-07T14:04:21.533Z,23.00
2023-05-07T14:06:52.572Z,23.10
2023-05-07T14:09:23.514Z,23.20
2023-05-07T14:11:54.479Z,23.30
2023-05-07T14:14:25.604Z,22.30
2023-05-07T14:16:56.578Z,21.80
2023-05-07T14:19:27.585Z,21.30
2023-05-07T14:21:59.385Z,21.10
2023-05-07T14:24:38.192Z,21.30
2023-05-07T14:27:09.380Z,22.10
2023-05-07T14:29:40.778Z,22.50
2023-05-07T14:32:12.961Z,22.60
2023-05-07T14:34:43.814Z,22.90
2023-05-07T14:37:17.658Z,23.00
2023-05-07T14:39:51.118Z,23.30
2023-05-07T14:42:22.174Z,23.10
2023-05-07T14:44:54.034Z,22.60
2023-05-07T14:47:25.183Z,22.30
2023-05-07T14:49:56.156Z,23.20
2023-05-07T14:52:27.184Z,23.20
2023-05-07T14:54:58.027Z,22.80
2023-05-07T14:57:32.879Z,23.10
2023-05-07T15:00:05.833Z,23.30
2023-05-07T15:02:36.913Z,23.30
2023-05-07T15:05:08.327Z,23.30
2023-05-07T15:07:39.166Z,23.20
2023-05-07T15:10:10.591Z,23.00
2023-05-07T15:12:41.527Z,23.20
2023-05-07T15:15:12.676Z,22.90
2023-05-07T15:17:43.705Z,23.10
2023-05-07T15:20:14.741Z,23.20
2023-05-07T15:22:45.671Z,23.20
2023-05-07T15:25:17.000Z,23.20
2023-05-07T15:27:48.056Z,23.30
2023-05-07T15:30:20.998Z,23.30
2023-05-07T15:32:52.084Z,23.40
2023-05-07T15:35:23.415Z,23.50
2023-05-07T15:37:54.776Z,23.70
2023-05-07T15:40:25.841Z,23.70
2023-05-07T15:42:57.682Z,23.70
2023-05-07T15:45:28.906Z,23.60
2023-05-07T15:47:59.960Z,23.80
2023-05-07T15:50:30.921Z,23.70
2023-05-07T15:53:01.988Z,23.70
2023-05-07T15:55:34.305Z,23.70
2023-05-07T15:58:06.704Z,23.80
2023-05-07T16:00:40.834Z,23.70
2023-05-07T16:03:11.965Z,23.80
2023-05-07T16:05:42.904Z,23.90
2023-05-07T16:08:14.157Z,23.70
2023-05-07T16:10:45.038Z,23.70
2023-05-07T16:13:19.245Z,23.70
2023-05-07T16:15:50.617Z,23.60
2023-05-07T16:18:21.556Z,23.70
2023-05-07T16:20:52.701Z,23.80
2023-05-07T16:23:23.559Z,23.70
2023-05-07T16:25:54.494Z,23.80
2023-05-07T16:28:25.926Z,23.90
2023-05-07T16:30:57.003Z,23.90
2023-05-07T16:33:27.954Z,23.80
2023-05-07T16:35:58.844Z,24.00
2023-05-07T16:38:33.043Z,24.30
2023-05-07T16:41:05.800Z,24.40
2023-05-07T16:43:36.723Z,24.60
2023-05-07T16:46:08.609Z,24.90
2023-05-07T16:48:39.617Z,24.80
2023-05-07T16:51:10.489Z,24.30
2023-05-07T16:53:41.353Z,24.20
2023-05-07T16:56:12.228Z,24.00
2023-05-07T16:58:43.155Z,24.00
2023-05-07T17:01:15.518Z,24.00
2023-05-07T17:03:46.612Z,24.10
2023-05-07T17:06:17.846Z,24.10
2023-05-07T17:08:48.720Z,23.90
2023-05-07T17:11:19.669Z,24.00
2023-05-07T17:13:51.974Z,24.10
2023-05-07T17:16:22.976Z,24.20
2023-05-07T17:18:53.835Z,24.20
2023-05-07T17:21:25.192Z,24.40
2023-05-07T17:23:56.167Z,24.20
2023-05-07T17:26:27.946Z,24.20
2023-05-07T17:28:58.955Z,24.10
2023-05-07T17:31:29.944Z,24.10
2023-05-07T17:34:01.003Z,24.00
2023-05-07T17:36:32.980Z,24.10
2023-05-07T17:39:04.521Z,24.00
2023-05-07T17:41:36.802Z,24.00
2023-05-07T17:44:07.774Z,24.10
2023-05-07T17:46:38.779Z,24.10
2023-05-07T17:49:09.872Z,24.30
2023-05-07T17:51:53.250Z,23.90
2023-05-07T17:54:26.967Z,23.80
2023-05-07T17:56:57.857Z,23.70
2023-05-07T17:59:29.320Z,23.70
2023-05-07T18:02:00.369Z,23.60
2023-05-07T18:04:31.300Z,23.60
2023-05-07T18:07:02.453Z,23.70
2023-05-07T18:09:33.671Z,23.30
2023-05-07T18:12:04.805Z,23.40
2023-05-07T18:14:36.783Z,23.60
2023-05-07T18:17:07.790Z,23.30
2023-05-07T18:19:38.896Z,23.70
2023-05-07T18:22:09.852Z,23.50
2023-05-07T18:24:40.768Z,23.70
2023-05-07T18:27:13.550Z,23.50
2023-05-07T18:29:44.478Z,23.30
2023-05-07T18:32:15.799Z,23.40
2023-05-07T18:34:48.995Z,23.50
2023-05-07T18:37:20.134Z,23.60
2023-05-07T18:39:51.227Z,23.20
2023-05-07T18:42:22.314Z,23.00
2023-05-07T18:44:53.183Z,23.20
2023-05-07T18:47:24.220Z,23.40
2023-05-07T18:49:55.257Z,23.40
2023-05-07T18:52:26.265Z,23.30
2023-05-07T18:54:57.213Z,23.20
2023-05-07T18:57:29.588Z,23.00
2023-05-07T19:00:00.705Z,22.90
2023-05-07T19:02:31.662Z,22.90
2023-05-07T19:05:02.586Z,22.90
2023-05-07T19:07:33.864Z,23.00
2023-05-07T19:10:06.263Z,23.00
2023-05-07T19:12:37.392Z,22.80
2023-05-07T19:15:09.475Z,22.70
2023-05-07T19:17:40.445Z,22.80
2023-05-07T19:20:12.265Z,22.90
2023-05-07T19:22:43.313Z,23.00
2023-05-07T19:25:14.860Z,22.70
2023-05-07T19:27:47.238Z,22.80
2023-05-07T19:30:18.892Z,22.80
2023-05-07T19:32:50.179Z,23.10
2023-05-07T19:35:21.383Z,23.10
2023-05-07T19:37:52.458Z,23.00
2023-05-07T19:40:23.489Z,23.00
2023-05-07T19:42:54.509Z,22.90
2023-05-07T19:45:25.992Z,22.80
2023-05-07T19:47:57.002Z,22.80
2023-05-07T19:50:28.118Z,23.20
2023-05-07T19:52:58.994Z,23.30
2023-05-07T19:55:29.904Z,23.30
2023-05-07T19:58:01.197Z,22.80
2023-05-07T20:00:33.419Z,23.00
2023-05-07T20:03:04.819Z,23.00
2023-05-07T20:05:35.883Z,22.70
2023-05-07T20:08:07.911Z,22.70
2023-05-07T20:10:38.829Z,22.60
2023-05-07T20:13:09.777Z,22.50
2023-05-07T20:15:40.970Z,22.50
2023-05-07T20:18:14.919Z,22.50
2023-05-07T20:20:45.846Z,22.40
2023-05-07T20:23:16.755Z,23.30
2023-05-07T20:25:48.442Z,22.80
2023-05-07T20:28:19.532Z,22.60
2023-05-07T20:30:53.455Z,22.50
2023-05-07T20:33:24.512Z,22.50
2023-05-07T20:35:58.766Z,22.50
2023-05-07T20:38:33.739Z,22.50
2023-05-07T20:41:09.774Z,22.60
2023-05-07T20:43:41.934Z,22.60
2023-05-07T20:46:13.291Z,22.60
2023-05-07T20:48:44.184Z,22.60
2023-05-07T20:51:16.440Z,22.50
2023-05-07T20:53:47.908Z,22.40
2023-05-07T20:56:20.212Z,22.40
2023-05-07T20:58:51.105Z,22.40
2023-05-07T21:01:22.066Z,22.50
2023-05-07T21:03:54.191Z,22.40
2023-05-07T21:06:25.444Z,22.30
2023-05-07T21:08:56.432Z,22.30
2023-05-07T21:11:27.290Z,22.30
2023-05-07T21:13:58.226Z,22.30
2023-05-07T21:16:29.115Z,22.30
2023-05-07T21:19:00.112Z,22.40
2023-05-07T21:21:31.272Z,22.40
2023-05-07T21:24:02.207Z,22.20
2023-05-07T21:26:33.193Z,22.20
2023-05-07T21:29:04.171Z,22.20
2023-05-07T21:31:35.246Z,22.30
2023-05-07T21:34:08.182Z,22.30
2023-05-07T21:36:39.190Z,22.20
2023-05-07T21:39:11.001Z,22.20
2023-05-07T21:41:41.966Z,22.20
2023-05-07T21:44:12.810Z,22.30
2023-05-07T21:46:43.867Z,22.10
2023-05-07T21:49:14.909Z,22.00
2023-05-07T21:51:45.842Z,22.10
2023-05-07T21:54:16.881Z,22.10
2023-05-07T21:56:49.893Z,22.00
2023-05-07T21:59:21.005Z,22.00
2023-05-07T22:01:51.991Z,22.10
2023-05-07T22:04:22.968Z,22.10
2023-05-07T22:06:54.101Z,22.20
2023-05-07T22:09:24.966Z,22.00
2023-05-07T22:11:55.874Z,22.10
2023-05-07T22:14:26.945Z,22.10
2023-05-07T22:16:57.856Z,22.00
2023-05-07T22:19:28.847Z,22.00
2023-05-07T22:22:00.025Z,21.90
2023-05-07T22:24:30.929Z,21.90
2023-05-07T22:27:01.812Z,22.00
2023-05-07T22:29:32.688Z,22.00
2023-05-07T22:32:03.955Z,22.00
2023-05-07T22:34:34.957Z,22.00
2023-05-07T22:37:05.902Z,22.00
2023-05-07T22:39:37.429Z,22.10
2023-05-07T22:42:08.362Z,22.20
2023-05-07T22:44:39.315Z,21.90
2023-05-07T22:47:10.245Z,21.90
2023-05-07T22:49:41.102Z,22.00
2023-05-07T22:52:12.112Z,22.00
2023-05-07T22:54:42.992Z,22.00
2023-05-07T22:57:13.860Z,22.00
2023-05-07T22:59:44.679Z,22.00
2023-05-07T23:02:15.589Z,22.00
2023-05-07T23:04:46.480Z,22.00
2023-05-07T23:07:17.380Z,22.00
2023-05-07T23:09:48.236Z,22.00
2023-05-07T23:12:19.183Z,22.00
2023-05-07T23:14:50.159Z,22.00
2023-05-07T23:17:21.117Z,21.90
2023-05-07T23:19:52.056Z,21.90
2023-05-07T23:22:22.995Z,22.00
2023-05-07T23:24:53.871Z,21.90
2023-05-07T23:27:24.724Z,22.00
2023-05-07T23:29:55.728Z,21.90
2023-05-07T23:32:26.798Z,22.00
2023-05-07T23:34:58.019Z,22.00
2023-05-07T23:37:29.098Z,22.00
2023-05-07T23:39:59.948Z,21.90
2023-05-07T23:42:30.939Z,21.90
2023-05-07T23:45:02.594Z,21.90
2023-05-07T23:47:33.571Z,21.90
2023-05-07T23:50:04.856Z,21.80
2023-05-07T23:52:35.741Z,21.80
2023-05-07T23:55:07.604Z,21.80
2023-05-07T23:57:38.473Z,21.70
